Airfield :
LOGIN :

Register | Disclaimer

   EN    FR    IT 

 










Legend :    VFR   Marginal VFR   IFR   Intensive IFR   Very Intensive IFR
Visi :
Ceiling :
>= 8 km
>= 3000ft
5 to 8 km
1000 to 3000 ft
1500m to 5 km
500 to 1000 ft
800 to 1500m
200 to 500 ft
< 800m
< 200 ft
Symbols :   Thunderstorms  Fog  Heavy snow  Heavy precipitations  Wind > 20 kt
SIGMETs :     Misc.  Thunderstorms  Icing  Turbulence  Mountain Waves  Volcanic Ashes







- Airport Elevation : 1043 ft
- IATA code : SLD


LZSL - Sliac

CURRENT METAR :
  • 230730Z 31009KT 280V340 9999 FEW030 SCT040 10/01 Q1021

EXPIRED METARs :
  • 230700Z 29003KT 9999 FEW030 BKN040 10/02 Q1022
  • 230630Z 24003KT 210V280 9999 FEW030 BKN040 10/04 Q1022
  • 230600Z VRB02KT 9999 FEW036 BKN043 09/04 Q1022
  • 230533Z 32003KT 300V360 9999 FEW036 BKN050 08/05 Q1022
  • 230500Z 20004KT 110V240 9999 FEW060 07/03 Q1022

TAF TAF LZSL
Valid from the 23 at 06:00 until the 23 at 15:00 UTC


230500Z 2306/2315 31004KT 9999 FEW060
BECMG 2306/2308 CAVOK
PROB30
TEMPO 2311/2315 32012KT 9999 -RA SCT035 BKN050
No reported NOTAMs for that airfield.



MET'MAP, your aeronautical weather chart ! - Copyright ORBIFLY December 2007 - Disclaimer

ORBIFLY MET'MAP TEAM :

Programming & Development : Alexandra Zaïnal
Concept & Development : Baudouin d'Aumeries
Co-Development & Prog : Marc-Olivier Méhu
Technical & hardware support : Manuel Goepfert

Contact : metmap@orbifly.com




SOURCES & CREDITS :

   NOAA